Time;durP1;ratioP1;P1;durP2;ratioP2;P2;SDS_P1;SDS_P2;PMS_P1;PMS_P2;Temp;Humidity;BMP_temperature;BMP_pressure;BME280_temperature;BME280_humidity;BME280_pressure;Samples;Min_cycle;Max_cycle;Signal;HPM_P1;HPM_P2
2023/09/14 00:01:15;;;;;;;2.47;1.30;;;17.50;99.90;;;;;;4994215;28;20215;-56
2023/09/14 00:03:43;;;;;;;5.00;1.38;;;17.50;99.90;;;;;;4994806;28;20258;-56
2023/09/14 00:06:11;;;;;;;4.90;1.42;;;17.40;99.90;;;;;;4994979;28;20203;-57
2023/09/14 00:08:40;;;;;;;1.83;1.13;;;17.40;99.90;;;;;;4994877;28;20710;-57
2023/09/14 00:11:08;;;;;;;6.85;1.48;;;17.40;99.90;;;;;;4995100;28;20211;-56
2023/09/14 00:13:35;;;;;;;3.67;1.20;;;17.40;99.90;;;;;;4994638;28;20269;-56
2023/09/14 00:16:05;;;;;;;3.10;1.38;;;17.30;99.90;;;;;;4994797;28;20306;-56
2023/09/14 00:18:33;;;;;;;5.20;1.75;;;17.30;99.90;;;;;;4995015;28;20218;-57
2023/09/14 00:21:01;;;;;;;2.80;1.55;;;17.30;99.90;;;;;;4995063;28;20215;-56
2023/09/14 00:23:28;;;;;;;1.40;1.23;;;17.30;99.90;;;;;;4994835;28;20227;-56
2023/09/14 00:25:56;;;;;;;1.70;1.20;;;17.20;99.90;;;;;;4994513;28;20243;-55
2023/09/14 00:28:24;;;;;;;2.67;1.25;;;17.20;99.90;;;;;;4994611;28;20215;-56
2023/09/14 00:30:53;;;;;;;2.80;1.42;;;17.20;99.90;;;;;;4994437;28;20243;-56
2023/09/14 00:33:23;;;;;;;2.67;1.40;;;17.20;99.90;;;;;;4994535;28;20681;-56
2023/09/14 00:35:51;;;;;;;2.25;1.40;;;17.20;99.90;;;;;;4994344;28;20557;-56
2023/09/14 00:38:19;;;;;;;2.20;1.25;;;17.10;99.90;;;;;;4994376;28;20302;-56
2023/09/14 00:40:48;;;;;;;1.10;1.10;;;17.10;99.90;;;;;;4994220;28;20203;-56
2023/09/14 00:43:16;;;;;;;2.22;1.60;;;17.10;99.90;;;;;;4994259;28;20705;-57
2023/09/14 00:45:44;;;;;;;3.95;1.38;;;17.10;99.90;;;;;;4994175;28;20246;-55
2023/09/14 00:48:11;;;;;;;1.33;1.08;;;17.00;99.90;;;;;;4994457;28;20208;-56
2023/09/14 00:50:41;;;;;;;1.45;1.27;;;17.00;99.90;;;;;;4994157;28;20258;-55
2023/09/14 00:53:11;;;;;;;1.80;0.90;;;16.90;99.90;;;;;;4994251;28;20231;-57
2023/09/14 00:55:38;;;;;;;1.80;1.40;;;16.90;99.90;;;;;;4993863;28;20231;-57
2023/09/14 00:58:07;;;;;;;4.50;1.30;;;16.80;99.90;;;;;;4994249;28;20235;-58
2023/09/14 01:00:35;;;;;;;3.13;1.38;;;16.80;99.90;;;;;;4994018;28;20298;-58
2023/09/14 01:03:03;;;;;;;5.00;1.42;;;16.70;99.90;;;;;;4994271;28;20240;-58
2023/09/14 01:05:31;;;;;;;1.95;1.10;;;16.70;99.90;;;;;;4993834;28;20204;-57
2023/09/14 01:08:00;;;;;;;1.52;0.90;;;16.60;99.90;;;;;;4993599;28;20277;-58
2023/09/14 01:10:28;;;;;;;2.72;1.20;;;16.50;99.90;;;;;;4993789;28;20302;-57
2023/09/14 01:12:57;;;;;;;1.77;1.17;;;16.50;99.90;;;;;;4993121;28;20266;-57
2023/09/14 01:15:27;;;;;;;2.95;1.45;;;16.40;99.90;;;;;;4993436;28;20285;-58
2023/09/14 01:18:00;;;;;;;3.42;1.10;;;16.40;99.90;;;;;;4993607;28;20254;-57
2023/09/14 01:20:45;;;;;;;6.05;1.50;;;16.30;99.90;;;;;;4993455;28;20207;-58
2023/09/14 01:23:24;;;;;;;1.38;1.23;;;16.20;99.90;;;;;;4993776;28;20223;-57
2023/09/14 01:25:53;;;;;;;4.82;1.55;;;16.20;99.90;;;;;;4993572;28;20346;-58
2023/09/14 01:28:21;;;;;;;2.63;1.15;;;16.10;99.90;;;;;;4993610;28;20286;-57
2023/09/14 01:30:49;;;;;;;7.15;1.48;;;16.10;99.90;;;;;;4993222;28;20295;-58
2023/09/14 01:33:17;;;;;;;2.83;1.40;;;16.00;99.90;;;;;;4993579;28;20265;-58
2023/09/14 01:35:47;;;;;;;1.33;1.23;;;16.00;99.90;;;;;;4993208;28;20330;-57
2023/09/14 01:38:15;;;;;;;1.25;1.00;;;16.00;99.90;;;;;;4993403;28;20252;-57
2023/09/14 01:40:44;;;;;;;5.32;1.55;;;16.00;99.90;;;;;;4992983;28;20247;-57
2023/09/14 01:43:13;;;;;;;6.93;1.55;;;16.00;99.90;;;;;;4998041;28;20660;-57
2023/09/14 01:45:41;;;;;;;2.25;1.50;;;15.90;99.90;;;;;;4993065;28;20250;-58
2023/09/14 01:48:10;;;;;;;3.15;1.40;;;15.90;99.90;;;;;;4993691;28;20208;-58
2023/09/14 01:50:37;;;;;;;4.50;1.17;;;15.80;99.90;;;;;;4992835;28;20231;-58
2023/09/14 01:53:05;;;;;;;3.15;1.25;;;15.80;99.90;;;;;;4993134;28;20274;-57
2023/09/14 01:55:33;;;;;;;2.63;1.33;;;15.80;99.90;;;;;;4992669;28;20263;-57
2023/09/14 01:58:01;;;;;;;7.55;1.45;;;15.70;99.90;;;;;;4992885;28;20208;-58
2023/09/14 02:00:31;;;;;;;4.93;2.13;;;15.70;99.90;;;;;;4992877;28;20282;-58
2023/09/14 02:02:59;;;;;;;6.03;1.40;;;15.70;99.90;;;;;;4993042;28;20227;-58
2023/09/14 02:05:26;;;;;;;9.75;1.58;;;15.60;99.90;;;;;;4992723;28;20200;-58
2023/09/14 02:07:54;;;;;;;5.60;1.50;;;15.50;99.90;;;;;;4992495;28;20204;-57
2023/09/14 02:10:22;;;;;;;4.38;1.70;;;15.50;99.90;;;;;;4992897;28;20228;-58
2023/09/14 02:12:50;;;;;;;2.60;1.55;;;15.40;99.90;;;;;;4992614;28;20266;-58
2023/09/14 02:15:18;;;;;;;3.78;1.52;;;15.40;99.90;;;;;;4992511;28;20227;-57
2023/09/14 02:17:48;;;;;;;6.35;1.20;;;15.30;99.90;;;;;;4992426;28;20293;-57
2023/09/14 02:20:16;;;;;;;3.03;1.30;;;15.30;99.90;;;;;;4992455;28;20199;-58
2023/09/14 02:22:44;;;;;;;4.07;1.30;;;15.30;99.90;;;;;;4992475;28;20232;-57
2023/09/14 02:25:12;;;;;;;1.90;1.35;;;15.30;99.90;;;;;;4991944;28;20235;-57
2023/09/14 02:27:39;;;;;;;3.88;1.42;;;15.30;99.90;;;;;;4992002;28;20199;-58
2023/09/14 02:30:08;;;;;;;2.80;1.20;;;15.20;99.90;;;;;;4992413;28;20208;-58
2023/09/14 02:32:36;;;;;;;3.05;1.40;;;15.20;99.90;;;;;;4992287;28;20230;-57
2023/09/14 02:35:07;;;;;;;1.50;1.35;;;15.20;99.90;;;;;;4991936;28;20228;-58
2023/09/14 02:37:35;;;;;;;3.08;1.17;;;15.20;99.90;;;;;;4992232;28;20219;-57
2023/09/14 02:40:06;;;;;;;3.45;1.40;;;15.20;99.90;;;;;;4992318;28;20266;-58
2023/09/14 02:42:36;;;;;;;4.90;1.50;;;15.10;99.90;;;;;;4992086;28;20224;-57
2023/09/14 02:45:05;;;;;;;2.90;1.42;;;15.10;99.90;;;;;;4992097;28;20208;-58
2023/09/14 02:47:33;;;;;;;3.80;1.38;;;15.00;99.90;;;;;;4991904;28;20204;-58
2023/09/14 02:50:01;;;;;;;2.38;1.20;;;15.00;99.90;;;;;;4992186;28;20230;-58
2023/09/14 02:52:30;;;;;;;3.25;1.42;;;15.10;99.90;;;;;;4992100;28;20251;-57
2023/09/14 02:54:59;;;;;;;3.75;1.52;;;15.00;99.90;;;;;;4991914;28;20317;-57
2023/09/14 02:57:27;;;;;;;5.05;1.60;;;15.00;99.90;;;;;;4991791;28;20295;-57
2023/09/14 02:59:55;;;;;;;3.00;1.38;;;15.00;99.90;;;;;;4991668;28;20208;-58
2023/09/14 03:02:23;;;;;;;1.73;1.30;;;15.00;99.90;;;;;;4992069;28;20227;-58
2023/09/14 03:04:51;;;;;;;3.20;1.60;;;15.00;99.90;;;;;;4991814;28;20302;-58
2023/09/14 03:07:19;;;;;;;2.63;1.58;;;15.00;99.90;;;;;;4996933;28;20204;-57
2023/09/14 03:09:51;;;;;;;5.40;1.80;;;14.90;99.90;;;;;;4992313;28;20702;-57
2023/09/14 03:12:19;;;;;;;5.63;1.48;;;14.90;99.90;;;;;;4991545;28;20238;-57
2023/09/14 03:14:47;;;;;;;5.68;1.73;;;14.90;99.90;;;;;;4991664;28;20203;-58
2023/09/14 03:17:15;;;;;;;3.80;1.25;;;14.90;99.90;;;;;;4991760;28;20270;-57
2023/09/14 03:19:43;;;;;;;2.20;1.30;;;14.90;99.90;;;;;;4998631;28;20259;-57
2023/09/14 03:22:11;;;;;;;3.22;1.48;;;14.90;99.90;;;;;;4997839;28;20228;-57
2023/09/14 03:24:39;;;;;;;5.65;1.58;;;14.80;99.90;;;;;;4991517;28;20287;-58
2023/09/14 03:27:08;;;;;;;1.88;1.40;;;14.80;99.90;;;;;;4994603;28;20203;-58
2023/09/14 03:29:36;;;;;;;2.30;1.60;;;14.80;99.90;;;;;;4994474;28;20640;-57
2023/09/14 03:32:05;;;;;;;4.50;1.55;;;14.70;99.90;;;;;;4991815;28;20259;-57
2023/09/14 03:34:33;;;;;;;1.55;1.40;;;14.70;99.90;;;;;;4991765;28;20211;-58
2023/09/14 03:37:00;;;;;;;15.40;2.13;;;14.60;99.90;;;;;;4995392;28;20223;-58
2023/09/14 03:39:29;;;;;;;2.13;1.13;;;14.60;99.90;;;;;;4995372;28;20204;-58
2023/09/14 03:41:57;;;;;;;2.22;1.60;;;14.50;99.90;;;;;;4997238;28;20227;-58
2023/09/14 03:44:26;;;;;;;1.98;1.77;;;14.50;99.90;;;;;;4999788;28;20207;-57
2023/09/14 03:46:54;;;;;;;5.30;1.30;;;14.50;99.90;;;;;;4995351;28;20238;-57
2023/09/14 03:49:22;;;;;;;3.20;1.60;;;14.40;99.90;;;;;;4995283;28;20236;-58
2023/09/14 03:51:50;;;;;;;3.95;1.75;;;14.40;99.90;;;;;;4995278;28;20286;-57
2023/09/14 03:54:18;;;;;;;7.50;1.70;;;14.40;99.90;;;;;;4995440;28;20218;-57
2023/09/14 03:56:46;;;;;;;1.70;1.30;;;14.30;99.90;;;;;;4995125;28;20255;-58
2023/09/14 03:59:13;;;;;;;3.10;1.50;;;14.30;99.90;;;;;;4995208;28;20200;-58
2023/09/14 04:01:43;;;;;;;5.97;1.75;;;14.20;99.90;;;;;;4995223;28;20256;-57
2023/09/14 04:04:11;;;;;;;4.38;1.33;;;14.20;99.90;;;;;;4994974;28;20204;-57
2023/09/14 04:06:39;;;;;;;5.30;1.67;;;14.20;99.90;;;;;;5000293;28;20250;-58
2023/09/14 04:09:08;;;;;;;2.60;1.80;;;14.20;99.90;;;;;;4995325;28;20266;-58
2023/09/14 04:11:58;;;;;;;3.22;1.83;;;14.20;99.90;;;;;;4994859;28;20223;-57
2023/09/14 04:14:25;;;;;;;5.07;1.63;;;14.20;99.90;;;;;;4935273;29;20238;-73
2023/09/14 04:16:57;;;;;;;2.40;1.50;;;14.10;99.90;;;;;;4955270;29;20233;-73
2023/09/14 04:19:25;;;;;;;1.88;1.42;;;14.10;99.90;;;;;;4949957;29;20217;-74
2023/09/14 04:21:52;;;;;;;5.97;1.88;;;14.10;99.90;;;;;;4947836;29;20264;-73
2023/09/14 04:24:20;;;;;;;3.78;1.80;;;14.10;99.90;;;;;;4956319;28;20325;-74
2023/09/14 04:26:48;;;;;;;3.03;1.80;;;14.10;99.90;;;;;;4939773;29;20296;-73
2023/09/14 04:29:16;;;;;;;4.40;1.40;;;14.10;99.90;;;;;;4942846;29;20699;-73
2023/09/14 04:31:44;;;;;;;2.70;1.63;;;14.10;99.90;;;;;;4944919;29;20655;-73
2023/09/14 04:34:14;;;;;;;8.13;1.60;;;14.00;99.90;;;;;;4941510;29;20229;-73
2023/09/14 04:36:42;;;;;;;4.68;1.70;;;14.00;99.90;;;;;;4936326;29;20214;-74
2023/09/14 04:39:12;;;;;;;2.95;1.60;;;14.00;99.90;;;;;;4937122;29;20214;-74
2023/09/14 04:41:40;;;;;;;7.38;1.58;;;13.90;99.90;;;;;;4937621;29;20254;-73
2023/09/14 04:44:08;;;;;;;1.90;1.50;;;13.90;99.90;;;;;;4956046;28;20256;-73
2023/09/14 04:46:36;;;;;;;2.72;1.77;;;13.90;99.90;;;;;;4954230;28;20245;-73
2023/09/14 04:49:04;;;;;;;1.98;1.60;;;13.90;99.90;;;;;;4955927;29;20202;-73
2023/09/14 04:51:34;;;;;;;4.70;1.83;;;13.80;99.90;;;;;;4940427;29;20297;-73
2023/09/14 04:54:03;;;;;;;1.80;1.67;;;13.80;99.90;;;;;;4947694;28;20280;-74
2023/09/14 04:56:30;;;;;;;5.68;2.30;;;13.80;99.90;;;;;;4945350;29;20222;-73
2023/09/14 04:58:59;;;;;;;5.65;2.15;;;13.80;99.90;;;;;;4944189;29;20209;-73
2023/09/14 05:01:26;;;;;;;5.45;2.10;;;13.80;99.90;;;;;;4943048;29;20296;-73
2023/09/14 05:03:54;;;;;;;2.22;1.80;;;13.70;99.90;;;;;;4939493;28;20218;-73
2023/09/14 05:06:22;;;;;;;3.38;2.00;;;13.70;99.90;;;;;;4955017;28;20205;-73
2023/09/14 05:08:51;;;;;;;3.72;1.90;;;13.70;99.90;;;;;;4955210;29;20225;-73
2023/09/14 05:11:19;;;;;;;2.28;1.80;;;13.70;99.90;;;;;;4941511;29;20241;-73
2023/09/14 05:13:47;;;;;;;5.07;1.70;;;13.70;99.90;;;;;;4970011;28;20333;-73
2023/09/14 05:16:15;;;;;;;5.97;2.00;;;13.60;99.90;;;;;;4974171;28;20228;-74
2023/09/14 05:18:45;;;;;;;3.10;2.00;;;13.60;99.90;;;;;;4974533;28;20209;-73
2023/09/14 05:21:13;;;;;;;7.85;1.98;;;13.60;99.90;;;;;;4969498;28;20205;-73
2023/09/14 05:23:41;;;;;;;2.95;1.90;;;13.60;99.90;;;;;;4963402;28;20267;-74
2023/09/14 05:26:10;;;;;;;2.15;2.05;;;13.60;99.90;;;;;;4974202;28;20204;-74
2023/09/14 05:28:38;;;;;;;3.25;2.00;;;13.60;99.90;;;;;;4958660;28;20209;-73
2023/09/14 05:31:06;;;;;;;4.28;1.80;;;13.60;99.90;;;;;;4974453;28;20589;-76
2023/09/14 05:33:34;;;;;;;3.55;2.00;;;13.60;99.90;;;;;;4959416;28;20232;-77
2023/09/14 05:36:03;;;;;;;5.93;2.28;;;13.70;99.90;;;;;;4957813;28;20511;-76
2023/09/14 05:38:31;;;;;;;4.15;2.38;;;13.70;99.90;;;;;;4974367;28;20294;-76
2023/09/14 05:40:59;;;;;;;4.88;2.03;;;13.70;99.90;;;;;;4957954;28;20252;-76
2023/09/14 05:43:28;;;;;;;4.88;2.20;;;13.70;99.90;;;;;;4974651;28;20628;-77
2023/09/14 05:45:56;;;;;;;3.88;2.20;;;13.80;99.90;;;;;;4963944;28;20233;-76
2023/09/14 05:48:24;;;;;;;3.30;2.47;;;13.80;99.90;;;;;;4961069;28;20572;-76
2023/09/14 05:50:52;;;;;;;7.88;3.05;;;13.80;99.90;;;;;;4973914;28;20244;-75
2023/09/14 05:53:20;;;;;;;4.55;2.17;;;13.80;99.90;;;;;;4974425;28;20287;-76
2023/09/14 05:55:48;;;;;;;2.80;2.17;;;13.80;99.90;;;;;;4957895;28;20225;-75
2023/09/14 05:58:16;;;;;;;2.40;1.60;;;13.80;99.90;;;;;;4973831;28;20647;-76
2023/09/14 06:00:45;;;;;;;2.55;2.03;;;13.80;99.90;;;;;;4965579;28;20272;-77
2023/09/14 06:03:13;;;;;;;8.68;1.92;;;13.80;99.90;;;;;;4967567;28;20295;-76
2023/09/14 06:05:42;;;;;;;4.00;2.10;;;13.80;99.90;;;;;;4973575;28;20311;-76
2023/09/14 06:08:10;;;;;;;4.43;2.25;;;13.80;99.90;;;;;;4973952;28;20201;-76
2023/09/14 06:10:38;;;;;;;5.65;1.73;;;13.80;99.90;;;;;;4973594;28;20248;-76
2023/09/14 06:13:06;;;;;;;6.78;2.42;;;13.90;99.90;;;;;;4974036;28;20244;-76
2023/09/14 06:15:34;;;;;;;3.22;1.75;;;13.90;99.90;;;;;;5007068;23;20231;-58
2023/09/14 06:18:03;;;;;;;6.15;1.98;;;13.90;99.90;;;;;;5012172;28;20301;-59
2023/09/14 06:20:31;;;;;;;4.60;2.60;;;14.00;99.90;;;;;;5012410;28;20211;-58
2023/09/14 06:22:59;;;;;;;4.15;2.55;;;14.10;99.90;;;;;;5012612;28;20235;-58
2023/09/14 06:25:27;;;;;;;6.40;2.20;;;14.20;99.90;;;;;;5012501;28;20203;-57
2023/09/14 06:27:55;;;;;;;9.60;2.75;;;14.20;99.90;;;;;;5012166;28;20254;-58
2023/09/14 06:30:22;;;;;;;2.20;2.00;;;14.30;99.90;;;;;;5012142;28;20659;-60
2023/09/14 06:32:51;;;;;;;4.45;2.40;;;14.50;99.90;;;;;;5012416;28;20322;-61
2023/09/14 06:35:21;;;;;;;3.38;2.40;;;15.00;99.90;;;;;;5012393;28;20609;-60
2023/09/14 06:37:49;;;;;;;6.88;2.55;;;15.60;99.90;;;;;;5012013;28;20273;-60
2023/09/14 06:40:17;;;;;;;4.80;2.78;;;16.00;99.90;;;;;;5012182;28;20207;-59
2023/09/14 06:42:45;;;;;;;4.28;2.45;;;16.30;99.90;;;;;;5012009;28;20234;-59
2023/09/14 06:45:12;;;;;;;5.15;2.40;;;16.20;99.90;;;;;;5011880;28;20199;-59
2023/09/14 06:47:40;;;;;;;5.82;2.55;;;16.10;99.90;;;;;;5012048;28;20244;-59
2023/09/14 06:50:09;;;;;;;6.15;2.67;;;15.90;99.90;;;;;;5006084;28;20203;-59
2023/09/14 06:52:38;;;;;;;4.60;2.50;;;15.80;99.90;;;;;;5005532;28;20277;-58
2023/09/14 06:55:06;;;;;;;7.07;2.83;;;15.70;99.90;;;;;;5009715;28;20670;-59
2023/09/14 06:57:35;;;;;;;6.38;2.58;;;15.70;99.90;;;;;;5011775;28;20234;-59
2023/09/14 07:00:15;;;;;;;4.75;2.55;;;15.70;99.90;;;;;;5011741;28;20253;-59
2023/09/14 07:02:44;;;;;;;10.10;2.80;;;15.70;99.90;;;;;;5011796;28;20227;-59
2023/09/14 07:05:12;;;;;;;7.97;3.17;;;15.80;99.90;;;;;;5011675;28;20207;-59
2023/09/14 07:07:41;;;;;;;7.50;2.78;;;15.80;99.90;;;;;;5011619;28;20211;-58
2023/09/14 07:10:10;;;;;;;6.57;2.88;;;15.90;99.90;;;;;;5010848;28;20747;-59
2023/09/14 07:12:38;;;;;;;7.18;3.05;;;15.90;99.90;;;;;;5011994;28;20226;-59
2023/09/14 07:15:07;;;;;;;4.85;2.60;;;16.00;99.90;;;;;;5011453;28;20215;-59
2023/09/14 07:17:35;;;;;;;9.88;3.40;;;16.10;99.90;;;;;;5011377;28;20230;-59
2023/09/14 07:20:04;;;;;;;6.75;3.20;;;16.10;99.90;;;;;;5011477;28;20213;-59
2023/09/14 07:22:32;;;;;;;7.28;2.60;;;16.20;99.90;;;;;;5011531;28;20630;-58
2023/09/14 07:25:01;;;;;;;5.72;2.60;;;16.30;99.90;;;;;;5011316;28;20214;-58
2023/09/14 07:27:29;;;;;;;6.97;2.63;;;16.40;99.90;;;;;;5011472;28;20204;-59
2023/09/14 07:29:57;;;;;;;8.13;2.60;;;16.50;99.90;;;;;;5011209;28;20656;-59
2023/09/14 07:32:25;;;;;;;7.57;2.65;;;16.60;99.90;;;;;;5011650;28;20254;-58
2023/09/14 07:34:57;;;;;;;7.75;2.90;;;16.70;99.90;;;;;;5010139;28;20272;-60
2023/09/14 07:37:25;;;;;;;6.57;2.40;;;16.70;99.90;;;;;;5011274;28;20714;-59
2023/09/14 07:39:52;;;;;;;6.18;2.60;;;16.80;99.90;;;;;;5011469;28;20203;-59
2023/09/14 07:42:22;;;;;;;6.00;2.40;;;16.90;99.90;;;;;;5011578;28;20223;-59
2023/09/14 07:44:50;;;;;;;5.35;2.72;;;17.00;99.90;;;;;;5011364;28;20238;-60
2023/09/14 07:47:18;;;;;;;8.10;2.50;;;17.10;99.90;;;;;;5006094;28;20235;-58
2023/09/14 07:49:46;;;;;;;7.68;2.72;;;17.20;99.90;;;;;;5011539;28;20249;-59
2023/09/14 07:52:14;;;;;;;7.05;3.08;;;17.30;99.90;;;;;;5011452;28;20222;-59
2023/09/14 07:54:42;;;;;;;6.10;2.35;;;17.30;99.90;;;;;;5005707;28;20695;-59
2023/09/14 07:57:10;;;;;;;5.50;2.30;;;17.30;99.90;;;;;;5011021;28;20199;-59
2023/09/14 07:59:39;;;;;;;6.15;2.10;;;17.30;99.90;;;;;;5011174;28;20266;-60
2023/09/14 08:02:08;;;;;;;2.42;1.83;;;17.40;99.90;;;;;;5011303;28;20235;-59
2023/09/14 08:04:36;;;;;;;4.97;2.42;;;17.80;99.90;;;;;;5011413;28;20203;-59
2023/09/14 08:07:04;;;;;;;9.20;2.13;;;18.20;99.90;;;;;;5011503;28;20286;-59
2023/09/14 08:09:32;;;;;;;10.50;3.33;;;18.30;99.90;;;;;;5011165;28;20204;-58
2023/09/14 08:12:00;;;;;;;2.80;2.03;;;18.20;99.90;;;;;;5011222;28;20227;-58
2023/09/14 08:14:28;;;;;;;9.55;2.45;;;17.90;99.90;;;;;;5011303;28;20207;-59
2023/09/14 08:16:57;;;;;;;4.93;2.35;;;17.80;99.90;;;;;;5011060;28;20207;-59
2023/09/14 08:19:25;;;;;;;4.10;2.53;;;17.60;99.90;;;;;;5011296;28;20231;-60
2023/09/14 08:21:53;;;;;;;4.60;2.35;;;17.60;99.90;;;;;;5013392;28;20207;-60
2023/09/14 08:24:21;;;;;;;5.25;2.30;;;17.50;99.90;;;;;;5014705;28;20314;-60
2023/09/14 08:26:49;;;;;;;7.50;2.30;;;17.60;99.90;;;;;;5014360;28;20203;-60
2023/09/14 08:29:17;;;;;;;13.35;2.60;;;17.60;99.90;;;;;;5014560;28;20245;-59
2023/09/14 08:31:45;;;;;;;6.20;2.42;;;17.70;99.90;;;;;;5014711;28;20207;-59
2023/09/14 08:34:15;;;;;;;5.97;2.47;;;17.70;99.90;;;;;;5014902;28;20253;-60
2023/09/14 08:36:42;;;;;;;6.53;2.60;;;17.70;99.90;;;;;;5014409;28;20203;-60
2023/09/14 08:39:11;;;;;;;8.18;3.13;;;17.80;99.90;;;;;;5014565;28;20226;-60
2023/09/14 08:41:44;;;;;;;8.70;2.85;;;17.90;99.90;;;;;;5014237;28;20289;-60
2023/09/14 08:44:12;;;;;;;8.18;2.63;;;18.00;99.90;;;;;;5014695;28;20203;-61
2023/09/14 08:46:40;;;;;;;7.55;3.20;;;18.20;99.90;;;;;;5015043;28;20207;-60
2023/09/14 08:49:08;;;;;;;5.63;2.38;;;18.20;99.90;;;;;;5014206;28;20213;-59
2023/09/14 08:51:38;;;;;;;7.38;2.35;;;18.10;99.90;;;;;;5007631;28;20203;-59
2023/09/14 08:54:06;;;;;;;4.72;2.30;;;18.20;99.90;;;;;;4994414;28;20207;-58
2023/09/14 08:56:43;;;;;;;6.45;2.50;;;18.10;99.90;;;;;;4999197;28;20207;-61
2023/09/14 08:59:11;;;;;;;8.55;2.97;;;18.10;99.90;;;;;;4994273;28;20318;-60
2023/09/14 09:01:39;;;;;;;7.43;2.72;;;18.20;99.90;;;;;;5000591;28;20207;-61
2023/09/14 09:04:07;;;;;;;8.18;2.00;;;18.20;99.90;;;;;;5013909;28;20207;-61
2023/09/14 09:06:37;;;;;;;4.15;2.22;;;18.30;99.90;;;;;;5006898;28;20208;-60
2023/09/14 09:09:07;;;;;;;5.70;1.90;;;18.50;99.90;;;;;;5012575;28;20289;-61
2023/09/14 09:11:35;;;;;;;8.23;2.28;;;18.70;99.90;;;;;;5013668;28;20207;-61
2023/09/14 09:14:03;;;;;;;6.38;2.22;;;19.00;99.90;;;;;;5013722;28;20222;-61
2023/09/14 09:16:31;;;;;;;4.53;2.00;;;19.30;99.90;;;;;;5013437;28;20264;-61
2023/09/14 09:19:03;;;;;;;3.70;2.00;;;19.60;99.90;;;;;;5013489;28;20226;-60
2023/09/14 09:21:37;;;;;;;4.95;2.05;;;19.90;99.90;;;;;;5013580;28;20285;-61
2023/09/14 09:24:05;;;;;;;6.18;2.10;;;20.10;99.90;;;;;;5013786;28;20202;-61
2023/09/14 09:26:35;;;;;;;2.75;1.73;;;20.30;99.90;;;;;;5012909;28;20740;-61
2023/09/14 09:29:14;;;;;;;4.80;1.73;;;20.50;99.90;;;;;;5013170;28;20203;-62
2023/09/14 09:31:43;;;;;;;4.82;1.15;;;20.70;99.90;;;;;;5012828;28;20221;-61
2023/09/14 09:34:12;;;;;;;4.90;1.85;;;20.80;99.90;;;;;;5012740;28;20215;-62
2023/09/14 09:36:41;;;;;;;5.18;1.65;;;21.00;99.90;;;;;;5012627;28;20693;-61
2023/09/14 09:39:11;;;;;;;4.60;1.60;;;21.20;99.90;;;;;;5004967;28;20223;-61
2023/09/14 09:41:40;;;;;;;5.63;1.70;;;21.30;99.90;;;;;;5013361;28;20230;-61
2023/09/14 09:44:09;;;;;;;1.67;1.48;;;21.30;99.90;;;;;;5013131;28;20306;-61
2023/09/14 09:46:37;;;;;;;5.63;1.58;;;21.20;99.90;;;;;;5012926;28;20203;-61
2023/09/14 09:49:05;;;;;;;4.82;1.70;;;21.40;99.90;;;;;;5013062;28;20581;-62
2023/09/14 09:51:34;;;;;;;3.10;1.45;;;21.50;99.90;;;;;;5004259;28;20207;-62
2023/09/14 09:54:07;;;;;;;4.20;1.35;;;21.90;99.90;;;;;;4993459;28;20970;-61
2023/09/14 09:56:35;;;;;;;3.30;1.48;;;22.30;99.90;;;;;;5006499;28;20242;-61
2023/09/14 09:59:09;;;;;;;5.47;2.05;;;22.70;99.90;;;;;;5013004;28;20574;-61
2023/09/14 10:01:37;;;;;;;7.85;1.63;;;22.90;99.90;;;;;;5012641;28;20217;-60
2023/09/14 10:04:09;;;;;;;4.78;1.80;;;23.20;99.90;;;;;;5012701;28;20213;-60
2023/09/14 10:06:38;;;;;;;4.75;1.80;;;23.50;99.90;;;;;;5010694;28;20289;-61
2023/09/14 10:09:10;;;;;;;4.95;1.80;;;23.70;99.90;;;;;;5010833;28;20269;-60
2023/09/14 10:11:38;;;;;;;3.92;1.52;;;23.60;99.90;;;;;;5011531;28;20213;-60
2023/09/14 10:14:06;;;;;;;2.90;1.80;;;23.70;99.90;;;;;;5011621;28;20202;-60
2023/09/14 10:16:36;;;;;;;4.32;1.58;;;23.80;99.90;;;;;;5010874;28;20691;-60
2023/09/14 10:19:04;;;;;;;3.60;1.70;;;23.60;99.90;;;;;;5011807;28;20284;-61
2023/09/14 10:21:32;;;;;;;5.00;1.88;;;23.60;99.90;;;;;;5011979;28;20210;-60
2023/09/14 10:24:00;;;;;;;3.05;1.58;;;23.90;99.90;;;;;;5012850;28;20230;-60
2023/09/14 10:26:30;;;;;;;5.15;1.40;;;24.40;99.90;;;;;;5012255;28;20225;-61
2023/09/14 10:28:57;;;;;;;4.30;1.35;;;24.90;99.90;;;;;;5011980;28;20238;-61
2023/09/14 10:31:25;;;;;;;3.63;1.70;;;25.30;99.90;;;;;;5012024;28;20226;-61
2023/09/14 10:33:57;;;;;;;3.47;1.60;;;25.70;99.90;;;;;;5012069;28;20288;-60
2023/09/14 10:36:25;;;;;;;5.35;1.65;;;25.80;99.90;;;;;;4996517;28;20226;-61
2023/09/14 10:38:53;;;;;;;5.32;1.60;;;25.80;99.90;;;;;;5012483;28;20262;-61
2023/09/14 10:41:21;;;;;;;3.38;1.60;;;25.70;99.90;;;;;;5012043;28;20231;-61
2023/09/14 10:43:50;;;;;;;3.58;1.60;;;25.90;99.90;;;;;;5012173;28;20316;-61
2023/09/14 10:46:19;;;;;;;3.30;1.35;;;25.90;99.90;;;;;;5011148;28;20199;-61
2023/09/14 10:48:47;;;;;;;7.35;1.67;;;26.10;99.90;;;;;;5011902;28;20207;-59
2023/09/14 10:51:15;;;;;;;3.83;1.30;;;26.10;99.90;;;;;;5011894;28;20290;-60
2023/09/14 10:53:43;;;;;;;2.72;1.23;;;26.40;99.90;;;;;;5012125;28;20226;-60
2023/09/14 10:56:21;;;;;;;6.13;1.60;;;26.80;99.90;;;;;;5007747;28;20719;-61
2023/09/14 10:58:54;;;;;;;2.80;0.98;;;27.30;99.90;;;;;;5001921;28;20231;-59
2023/09/14 11:01:25;;;;;;;2.28;1.23;;;27.40;99.90;;;;;;4994462;28;20773;-59
2023/09/14 11:04:06;;;;;;;2.03;1.10;;;27.60;99.90;;;;;;4992168;28;20904;-59
2023/09/14 11:06:44;;;;;;;3.35;1.40;;;27.70;99.90;;;;;;4998524;28;20208;-59
2023/09/14 11:09:14;;;;;;;2.67;1.13;;;27.60;99.90;;;;;;5011595;28;20290;-59
2023/09/14 11:11:44;;;;;;;2.95;1.20;;;26.80;99.70;;;;;;5011464;28;20212;-59
2023/09/14 11:14:15;;;;;;;5.85;1.58;;;26.70;99.90;;;;;;5011636;28;20687;-60
2023/09/14 11:16:45;;;;;;;5.65;1.70;;;26.80;99.90;;;;;;5010824;28;20574;-60
2023/09/14 11:19:52;;;;;;;1.55;1.10;;;27.20;99.90;;;;;;5003225;28;20249;-60
2023/09/14 11:22:26;;;;;;;3.45;1.40;;;27.60;99.90;;;;;;5009620;28;20314;-60
2023/09/14 11:24:56;;;;;;;1.60;1.50;;;28.20;99.90;;;;;;5011797;28;20634;-60
2023/09/14 11:27:27;;;;;;;2.75;1.73;;;28.50;99.90;;;;;;5010923;28;20203;-60
2023/09/14 11:29:58;;;;;;;5.38;1.58;;;28.10;98.80;;;;;;5011594;28;20233;-60
2023/09/14 11:32:28;;;;;;;3.40;1.38;;;27.50;99.90;;;;;;5010243;28;20230;-60
2023/09/14 11:34:59;;;;;;;2.13;1.30;;;27.20;99.90;;;;;;5011687;28;20218;-60
2023/09/14 11:37:31;;;;;;;3.95;1.35;;;27.30;99.60;;;;;;5011231;28;20213;-60
2023/09/14 11:40:11;;;;;;;3.75;1.58;;;27.70;99.90;;;;;;5011566;28;20217;-59
2023/09/14 11:43:20;;;;;;;4.15;1.55;;;28.20;99.90;;;;;;5011271;28;20280;-60
2023/09/14 11:46:10;;;;;;;3.65;1.30;;;28.60;97.30;;;;;;5011793;28;20206;-60
2023/09/14 11:48:45;;;;;;;2.63;1.42;;;28.80;97.90;;;;;;5011644;28;20221;-60
2023/09/14 11:51:22;;;;;;;2.55;1.30;;;29.30;95.50;;;;;;5011134;28;20261;-60
2023/09/14 11:53:50;;;;;;;1.20;1.08;;;29.70;94.30;;;;;;5011618;28;20234;-60
2023/09/14 11:56:18;;;;;;;1.13;1.02;;;30.00;93.40;;;;;;5012425;28;20668;-60
2023/09/14 11:58:46;;;;;;;1.20;0.90;;;29.90;93.40;;;;;;5016185;28;20203;-60
2023/09/14 12:01:15;;;;;;;2.78;1.00;;;29.80;93.30;;;;;;5014837;28;20287;-60
2023/09/14 12:03:44;;;;;;;3.47;1.70;;;29.80;93.50;;;;;;5014919;28;20227;-60
2023/09/14 12:06:12;;;;;;;3.55;1.40;;;29.80;93.40;;;;;;5014852;28;20198;-60
2023/09/14 12:08:46;;;;;;;1.40;1.27;;;29.90;93.50;;;;;;5014871;28;20750;-60
2023/09/14 12:11:14;;;;;;;1.95;1.08;;;30.10;92.70;;;;;;5014633;28;20250;-60
2023/09/14 12:13:49;;;;;;;7.72;1.58;;;30.20;92.60;;;;;;5014786;28;20263;-60
2023/09/14 12:16:21;;;;;;;2.63;1.15;;;30.40;93.00;;;;;;5014045;28;20246;-60
2023/09/14 12:18:50;;;;;;;7.32;1.45;;;30.40;91.80;;;;;;5014692;28;20207;-60
2023/09/14 12:21:18;;;;;;;2.67;1.45;;;29.90;91.40;;;;;;5014497;28;20230;-60
2023/09/14 12:23:47;;;;;;;4.20;1.50;;;29.60;93.20;;;;;;5014684;28;20284;-60
2023/09/14 12:26:17;;;;;;;3.92;1.50;;;29.00;92.20;;;;;;5014230;28;20669;-60
2023/09/14 12:28:46;;;;;;;3.15;1.20;;;28.00;92.30;;;;;;5014942;28;20210;-60
2023/09/14 12:31:14;;;;;;;3.58;1.50;;;27.80;94.40;;;;;;5014629;28;20211;-60
2023/09/14 12:33:44;;;;;;;1.30;1.20;;;28.40;95.40;;;;;;5014743;28;20227;-60
2023/09/14 12:36:12;;;;;;;1.55;1.35;;;29.00;92.70;;;;;;5014281;28;20233;-60
2023/09/14 12:38:40;;;;;;;3.03;1.23;;;29.50;91.70;;;;;;5014871;28;20211;-60
2023/09/14 12:41:14;;;;;;;2.22;1.27;;;29.90;93.20;;;;;;5014624;28;20249;-60
2023/09/14 12:43:42;;;;;;;4.95;1.48;;;30.30;92.90;;;;;;5015127;28;20227;-60
2023/09/14 12:46:11;;;;;;;5.65;1.60;;;30.50;91.70;;;;;;5014506;28;20213;-60
2023/09/14 12:48:41;;;;;;;9.10;1.92;;;30.20;91.50;;;;;;5014810;28;20199;-60
2023/09/14 12:51:12;;;;;;;3.95;1.65;;;29.60;92.10;;;;;;5006256;28;20266;-60
2023/09/14 12:53:42;;;;;;;2.25;1.13;;;29.00;92.20;;;;;;5014492;28;20314;-60
2023/09/14 12:56:10;;;;;;;2.42;1.50;;;28.80;92.60;;;;;;5014614;28;20234;-65